Skip Navigation LinksHome page > Weather > Current weather Skip Navigation Links

Current Weather

Sarh, Chad

For information only: do not use for flight planning or navigation.
Latest weather
Observation time Monday, December 5, 2016 8:00 AM WAT
Local time Monday, December 5, 2016 9:25 AM WAT
Flight conditions Visual Meteorological Conditions
Winds
Wind direction Northeast (40°)
Wind speed 7 mph
Visibility 6.2 mi.
Sky condition
Ceiling unlimited
Sky clear
Temperature 81°F
Dewpoint 54°F
Altimeter 29.94 in.Hg
Derived measurements
Relative humidity 39%
Heat index 81°F
Density altitude 1921 ft.
Remarks
Ceiling and visibility OK.
METAR FTTA 050700Z 04006KT CAVOK 27/12 Q1014

Settings

Location code

InnerDrive.Weather 4.0.6144.1 Release CLR 4.0.30319.34209
Copyright ©2015 Inner Drive Technology. All rights reserved. Portions Copyright ©1986-2015 David Braverman.

Find weather

Site navigation


Skip Navigation Links

Place info

Page info

PayPal - The safer, easier way to pay online!

Return home.

Copyright ©2016 Inner Drive Technology. Purveyors of fine, hand-crafted computer software. Page printed 2016-12-05T08:25:23 UTC.